Time;durP1;ratioP1;P1;durP2;ratioP2;P2;SDS_P1;SDS_P2;PMS_P1;PMS_P2;Temp;Humidity;BMP_temperature;BMP_pressure;BME280_temperature;BME280_humidity;BME280_pressure;Samples;Min_cycle;Max_cycle;Signal;HPM_P1;HPM_P2
2023/07/11 00:03:32;;;;;;;10.55;8.18;;;;;;;-145.68;100.00;73737.66;10533783;28;20194;-73
2023/07/11 00:08:33;;;;;;;10.75;8.38;;;;;;;-145.68;100.00;73745.66;10534136;28;20709;-73
2023/07/11 00:13:34;;;;;;;11.00;8.65;;;;;;;-145.68;100.00;73753.66;10534169;28;20642;-73
2023/07/11 00:18:34;;;;;;;9.85;8.25;;;;;;;-145.68;100.00;73753.66;10533858;28;20186;-73
2023/07/11 00:23:35;;;;;;;9.40;8.25;;;;;;;-145.68;100.00;73745.66;10533408;28;20187;-73
2023/07/11 00:28:35;;;;;;;8.55;7.68;;;;;;;-145.68;100.00;73751.66;10533847;28;20223;-73
2023/07/11 00:33:35;;;;;;;8.98;7.35;;;;;;;-145.68;100.00;73755.66;10533313;28;20219;-73
2023/07/11 00:38:36;;;;;;;8.90;7.95;;;;;;;-145.68;100.00;73761.66;10533538;28;20203;-73
2023/07/11 00:43:36;;;;;;;13.75;8.07;;;;;;;-145.68;100.00;73761.66;10533192;28;20187;-73
2023/07/11 00:48:39;;;;;;;12.45;7.88;;;;;;;-145.68;100.00;73761.66;10515314;28;20214;-73
2023/07/11 00:53:41;;;;;;;8.45;7.50;;;;;;;-145.68;100.00;73767.66;10514678;28;20194;-74
2023/07/11 00:58:44;;;;;;;9.68;8.48;;;;;;;-145.68;100.00;73773.63;10514844;28;20187;-73
2023/07/11 01:03:45;;;;;;;13.70;8.38;;;;;;;-145.68;100.00;73771.63;10514205;28;20655;-73
2023/07/11 01:08:48;;;;;;;11.50;7.85;;;;;;;-145.68;100.00;73781.63;10496873;28;20215;-73
2023/07/11 01:13:48;;;;;;;8.70;7.53;;;;;;;-145.68;100.00;73783.63;10504733;28;20300;-73
2023/07/11 01:18:48;;;;;;;11.20;7.90;;;;;;;-145.68;100.00;73791.63;10521608;28;20348;-73
2023/07/11 01:23:49;;;;;;;8.93;7.50;;;;;;;-145.68;100.00;73791.63;10538569;28;20662;-73
2023/07/11 01:28:49;;;;;;;10.27;7.80;;;;;;;-145.68;100.00;73789.63;10521396;28;20225;-73
2023/07/11 01:33:49;;;;;;;8.75;7.82;;;;;;;-145.68;100.00;73787.63;10520929;28;20321;-73
2023/07/11 01:38:50;;;;;;;9.70;7.43;;;;;;;-145.68;100.00;73803.63;10521494;28;20697;-73
2023/07/11 01:43:51;;;;;;;12.68;7.80;;;;;;;-145.68;100.00;73803.63;10538706;28;20270;-73
2023/07/11 01:48:51;;;;;;;9.18;7.10;;;;;;;-145.68;100.00;73811.63;10504435;28;20249;-73
2023/07/11 01:53:52;;;;;;;9.13;7.65;;;;;;;-145.68;100.00;73813.63;10520420;28;20195;-74
2023/07/11 01:58:52;;;;;;;10.98;7.55;;;;;;;-145.68;100.00;73819.63;10520767;28;20187;-73
2023/07/11 02:03:53;;;;;;;12.77;7.07;;;;;;;-145.68;100.00;73827.59;10520017;28;20370;-74
2023/07/11 02:08:54;;;;;;;8.63;7.25;;;;;;;-145.68;100.00;73827.59;10522068;28;20232;-74
2023/07/11 02:13:54;;;;;;;8.80;7.03;;;;;;;-145.68;100.00;73835.59;10561968;28;20650;-74
2023/07/11 02:18:55;;;;;;;11.32;7.80;;;;;;;-145.68;100.00;73843.59;10579605;28;20195;-74
2023/07/11 02:23:56;;;;;;;9.32;7.07;;;;;;;-145.68;100.00;73841.59;10560544;28;20189;-74
2023/07/11 02:28:56;;;;;;;8.25;6.85;;;;;;;-145.68;100.00;73847.59;10579213;28;20710;-74
2023/07/11 02:33:57;;;;;;;12.45;7.85;;;;;;;-145.68;100.00;73847.59;10578084;28;20234;-74
2023/07/11 02:38:58;;;;;;;7.97;6.65;;;;;;;-145.68;100.00;73847.59;10578084;28;20252;-74
2023/07/11 02:43:59;;;;;;;8.82;6.97;;;;;;;-145.68;100.00;73857.59;10577908;28;20197;-74
2023/07/11 02:48:59;;;;;;;8.57;7.25;;;;;;;-145.68;100.00;73863.59;10577906;28;20274;-74
2023/07/11 02:53:59;;;;;;;11.43;7.18;;;;;;;-145.68;100.00;73867.59;10578503;28;20296;-74
2023/07/11 02:59:00;;;;;;;9.13;6.88;;;;;;;-145.68;100.00;73875.59;10578648;28;20183;-73
2023/07/11 03:04:01;;;;;;;8.32;6.88;;;;;;;-145.68;100.00;73875.59;10558770;28;20205;-74
2023/07/11 03:09:01;;;;;;;9.00;6.65;;;;;;;-145.68;100.00;73867.59;10532566;28;20661;-74
2023/07/11 03:14:01;;;;;;;8.10;6.47;;;;;;;-145.68;100.00;73879.59;10531483;28;20182;-74
2023/07/11 03:19:02;;;;;;;8.60;6.72;;;;;;;-145.68;100.00;73875.59;10513242;28;20190;-73
2023/07/11 03:24:02;;;;;;;11.43;6.25;;;;;;;-145.68;100.00;73875.59;10531037;28;20216;-74
2023/07/11 03:29:03;;;;;;;8.05;6.13;;;;;;;-145.68;100.00;73873.59;10531081;28;20697;-74
2023/07/11 03:34:03;;;;;;;11.15;7.15;;;;;;;-145.68;100.00;73871.59;10495614;28;20234;-74
2023/07/11 03:39:04;;;;;;;11.68;7.57;;;;;;;-145.68;100.00;73877.59;10530820;28;20221;-74
2023/07/11 03:44:04;;;;;;;8.82;6.43;;;;;;;-145.68;100.00;73877.59;10512954;28;20218;-74
2023/07/11 03:49:06;;;;;;;8.30;6.07;;;;;;;-145.68;100.00;73877.59;10530043;28;20750;-74
2023/07/11 03:54:06;;;;;;;9.20;6.25;;;;;;;-145.68;100.00;73875.59;10530758;28;20218;-74
2023/07/11 03:59:07;;;;;;;8.48;5.82;;;;;;;-145.68;100.00;73871.59;10529788;28;20289;-74
2023/07/11 04:04:07;;;;;;;6.85;6.18;;;;;;;-145.68;100.00;73875.59;10515250;28;20190;-74
2023/07/11 04:09:08;;;;;;;7.13;5.45;;;;;;;-145.68;100.00;73861.59;10533838;28;20674;-74
2023/07/11 04:14:10;;;;;;;11.15;5.75;;;;;;;-145.68;100.00;73855.59;10533710;28;20187;-74
2023/07/11 04:19:10;;;;;;;11.57;6.70;;;;;;;-145.68;100.00;73847.59;10534007;28;20187;-74
2023/07/11 04:24:10;;;;;;;7.32;5.90;;;;;;;-145.68;100.00;73821.63;10533625;28;20674;-74
2023/07/11 04:29:11;;;;;;;9.60;6.18;;;;;;;-145.68;100.00;73799.63;10533658;28;20697;-74
2023/07/11 04:34:11;;;;;;;10.80;6.07;;;;;;;-145.68;100.00;73781.63;10533405;28;20588;-74
2023/07/11 04:39:12;;;;;;;7.88;5.60;;;;;;;-145.68;100.00;73753.66;10533425;28;20236;-74
2023/07/11 04:44:12;;;;;;;7.35;6.00;;;;;;;-145.68;100.00;73739.66;10533525;28;20244;-74
2023/07/11 04:49:13;;;;;;;10.55;5.50;;;;;;;-145.68;100.00;73723.66;10540319;28;20245;-74
2023/07/11 04:54:13;;;;;;;6.15;5.43;;;;;;;-145.68;100.00;73697.69;10541645;28;20668;-74
2023/07/11 04:59:13;;;;;;;6.53;4.65;;;;;;;-145.68;100.00;73667.69;10540580;28;20268;-74
2023/07/11 05:04:14;;;;;;;9.07;4.82;;;;;;;-145.68;100.00;73621.72;10541027;28;20190;-74
2023/07/11 05:09:17;;;;;;;12.80;5.00;;;;;;;-145.68;100.00;73587.75;10540557;28;20233;-74
2023/07/11 05:14:17;;;;;;;7.30;4.82;;;;;;;-145.68;100.00;73553.75;10540285;28;20194;-74
2023/07/11 05:19:19;;;;;;;6.68;4.13;;;;;;;-145.68;100.00;73527.78;10540343;28;20178;-75
2023/07/11 05:24:19;;;;;;;6.85;3.78;;;;;;;-145.68;99.33;73493.81;10539856;28;20647;-74
2023/07/11 05:29:19;;;;;;;5.90;4.20;;;;;;;-145.68;96.11;73451.81;10539444;28;20222;-75
2023/07/11 05:34:20;;;;;;;7.38;4.50;;;;;;;-145.68;94.50;73407.84;10539587;28;20230;-75
2023/07/11 05:39:20;;;;;;;7.28;3.88;;;;;;;-145.68;89.12;73355.88;10564533;28;20247;-76
2023/07/11 05:44:20;;;;;;;13.50;3.95;;;;;;;-145.68;85.59;73327.91;10581560;28;20661;-76
2023/07/11 05:49:21;;;;;;;6.60;4.18;;;;;;;-145.68;81.88;73271.94;10580820;28;20962;-76
2023/07/11 05:54:21;;;;;;;7.13;3.50;;;;;;;-145.68;78.00;73213.97;10585779;27;20197;-76
2023/07/11 05:59:21;;;;;;;4.05;3.20;;;;;;;-145.68;75.00;73192.00;10589505;27;20694;-76
2023/07/11 06:04:22;;;;;;;6.05;3.75;;;;;;;-145.68;72.72;73136.03;10580317;28;20668;-76
2023/07/11 06:09:22;;;;;;;8.45;3.47;;;;;;;-145.68;69.01;73072.06;10580294;28;21002;-76
2023/07/11 06:14:23;;;;;;;5.38;2.95;;;;;;;-145.68;65.74;73022.13;10562015;28;20213;-76
2023/07/11 06:19:23;;;;;;;5.55;2.83;;;;;;;-145.68;61.99;72952.16;10579924;28;20178;-76
2023/07/11 06:24:23;;;;;;;4.07;2.40;;;;;;;-145.68;59.40;72962.16;10578214;28;20238;-77
2023/07/11 06:29:24;;;;;;;4.97;2.83;;;;;;;-145.68;57.41;72800.28;10577452;28;20217;-77
2023/07/11 06:34:24;;;;;;;3.03;2.05;;;;;;;-145.68;52.08;72624.41;10577719;28;20227;-77
2023/07/11 06:39:25;;;;;;;3.95;1.73;;;;;;;-145.68;46.77;72510.50;10577414;28;20209;-77
2023/07/11 06:44:25;;;;;;;2.42;1.88;;;;;;;-145.68;45.00;72342.66;10577621;28;20269;-77
2023/07/11 06:49:25;;;;;;;5.47;2.20;;;;;;;-145.68;44.12;72340.66;10577033;28;20700;-77
2023/07/11 06:54:26;;;;;;;2.92;1.73;;;;;;;-145.68;42.61;72232.75;10574810;28;20802;-77
2023/07/11 06:59:27;;;;;;;4.40;1.50;;;;;;;-145.68;41.39;72172.81;10574282;28;20186;-77
2023/07/11 07:04:27;;;;;;;2.58;1.80;;;;;;;-145.68;40.99;72166.81;10575715;28;20431;-77
2023/07/11 07:09:28;;;;;;;5.57;2.00;;;;;;;-145.68;39.52;72152.84;10573770;28;20205;-77
2023/07/11 07:14:28;;;;;;;2.10;1.60;;;;;;;-145.68;38.34;71965.00;10557029;28;20956;-77
2023/07/11 07:19:29;;;;;;;2.75;1.80;;;;;;;-145.68;36.26;71891.09;10573011;28;20528;-76
2023/07/11 07:24:29;;;;;;;2.83;1.90;;;;;;;-145.68;37.40;71917.06;10574252;28;20203;-78
2023/07/11 07:29:29;;;;;;;1.83;1.40;;;;;;;-145.68;35.50;71817.16;10570748;28;20998;-76
2023/07/11 07:34:30;;;;;;;4.70;2.08;;;;;;;-145.68;39.36;72106.88;10573160;28;20971;-77
2023/07/11 07:39:30;;;;;;;2.13;1.90;;;;;;;-145.68;37.94;71893.09;10574619;28;20220;-76
2023/07/11 07:44:30;;;;;;;2.50;1.70;;;;;;;-145.68;36.77;71845.13;10574810;28;20190;-76
2023/07/11 07:49:31;;;;;;;4.23;2.20;;;;;;;-145.68;36.78;72044.94;10574336;28;20213;-75
2023/07/11 07:54:31;;;;;;;2.73;2.00;;;;;;;-145.68;35.68;71921.06;10574144;28;20461;-75
2023/07/11 07:59:32;;;;;;;4.17;2.00;;;;;;;-145.68;34.36;71805.19;10567683;28;20950;-76
2023/07/11 08:04:32;;;;;;;5.03;2.30;;;;;;;-145.68;36.80;71909.06;10573533;28;21321;-76
2023/07/11 08:09:33;;;;;;;4.47;2.33;;;;;;;-145.68;36.33;72018.97;10529308;28;20217;-75
2023/07/11 08:14:38;;;;;;;5.00;2.30;;;;;;;-145.68;37.33;72136.84;10573671;28;20435;-75
2023/07/11 08:19:38;;;;;;;5.50;2.22;;;;;;;-145.68;37.74;71981.00;10574038;28;20333;-75
2023/07/11 08:24:38;;;;;;;5.78;2.47;;;;;;;-145.68;35.37;71833.16;10582416;28;20285;-75
2023/07/11 08:29:44;;;;;;;5.67;2.30;;;;;;;-145.68;34.35;71687.31;10581740;28;20228;-76
2023/07/11 08:34:45;;;;;;;7.45;2.85;;;;;;;-145.68;36.34;71875.09;10562872;28;20479;-76
2023/07/11 08:39:45;;;;;;;2.70;1.70;;;;;;;-145.68;35.91;71751.22;10560433;28;20312;-76
2023/07/11 08:44:51;;;;;;;3.17;2.20;;;;;;;-145.68;34.17;71705.28;10544419;27;20430;-76
2023/07/11 08:49:55;;;;;;;3.13;2.03;;;;;;;-145.68;35.17;71821.16;10620166;27;20554;-76
2023/07/11 08:55:01;;;;;;;3.13;2.08;;;;;;;-145.68;35.61;71777.22;10520702;28;20194;-76
2023/07/11 09:00:12;;;;;;;3.30;2.20;;;;;;;-145.68;33.87;71587.41;10524728;28;20197;-76
2023/07/11 09:05:18;;;;;;;2.53;2.30;;;;;;;-145.68;33.18;71581.41;10579864;28;20190;-76
2023/07/11 09:10:40;;;;;;;4.90;2.45;;;;;;;-145.68;34.47;71865.13;10561913;28;20249;-76
2023/07/11 09:15:48;;;;;;;4.55;2.38;;;;;;;-145.68;35.00;71825.16;10561810;28;20192;-76
2023/07/11 09:20:56;;;;;;;5.30;2.05;;;;;;;-145.68;34.62;71653.34;10561695;28;20999;-77
2023/07/11 09:26:00;;;;;;;3.55;2.20;;;;;;;-145.68;35.12;71619.38;10579054;28;20194;-76
2023/07/11 09:31:03;;;;;;;2.92;1.95;;;;;;;-145.68;34.38;71635.34;10559520;28;20216;-77
2023/07/11 09:36:24;;;;;;;4.28;2.58;;;;;;;-145.68;32.96;71565.44;10560466;28;20192;-76
2023/07/11 09:41:36;;;;;;;4.05;2.95;;;;;;;-145.68;32.90;71753.22;10558477;28;20213;-76
2023/07/11 09:46:36;;;;;;;3.20;2.72;;;;;;;-145.68;32.82;71783.19;10562034;28;20255;-76
2023/07/11 09:51:47;;;;;;;7.20;2.45;;;;;;;-145.68;33.33;71761.22;10553734;28;20559;-76
2023/07/11 09:56:48;;;;;;;2.75;2.20;;;;;;;-145.68;33.09;71569.44;10549608;28;20306;-76
2023/07/11 10:01:55;;;;;;;3.50;3.00;;;;;;;-145.68;33.31;71495.50;10577632;28;20269;-76
2023/07/11 10:06:57;;;;;;;4.88;2.95;;;;;;;-145.68;30.14;71355.66;10578063;28;20186;-76
2023/07/11 10:12:13;;;;;;;4.72;2.75;;;;;;;-145.68;29.80;71329.69;10578427;28;20619;-77
2023/07/11 10:17:18;;;;;;;3.22;2.70;;;;;;;-145.68;31.44;71377.63;10559550;27;20197;-76
2023/07/11 10:22:26;;;;;;;4.00;3.55;;;;;;;-145.68;34.69;71831.16;10559554;28;20190;-76
2023/07/11 10:27:29;;;;;;;4.20;3.40;;;;;;;-145.68;35.60;71865.13;10558814;28;20182;-76
2023/07/11 10:32:43;;;;;;;5.00;3.45;;;;;;;-145.68;33.87;71669.31;10557716;28;20225;-76
2023/07/11 10:37:49;;;;;;;6.55;3.92;;;;;;;-145.68;35.55;71881.09;10553182;28;20304;-76
2023/07/11 10:42:56;;;;;;;4.53;4.13;;;;;;;-145.68;33.83;71643.34;10557021;28;20178;-75
2023/07/11 10:48:06;;;;;;;9.68;3.88;;;;;;;-145.68;34.07;71563.44;10558472;28;20662;-75
2023/07/11 10:53:19;;;;;;;7.97;4.18;;;;;;;-145.68;33.66;71525.47;10576463;28;20229;-76
2023/07/11 10:58:22;;;;;;;6.03;5.00;;;;;;;-145.68;33.97;71573.41;10576410;28;20194;-76
2023/07/11 11:03:35;;;;;;;6.13;4.90;;;;;;;-145.68;34.47;71587.41;10575667;28;20213;-76
2023/07/11 11:08:55;;;;;;;10.70;6.30;;;;;;;-145.68;35.32;71763.22;10487007;28;20564;-69
2023/07/11 11:14:09;;;;;;;9.55;5.85;;;;;;;-145.68;36.64;71865.13;10484167;28;20621;-68
2023/07/11 11:19:22;;;;;;;8.07;6.38;;;;;;;-145.68;35.72;71677.31;10456064;28;20211;-69
2023/07/11 11:24:29;;;;;;;9.57;6.22;;;;;;;-145.68;35.34;71705.28;10443836;28;20223;-69
2023/07/11 11:29:46;;;;;;;8.40;5.68;;;;;;;-145.68;34.80;71603.38;10444101;28;20227;-67
2023/07/11 11:35:14;;;;;;;8.18;6.28;;;;;;;-145.68;34.86;71537.47;10444937;28;20283;-68
2023/07/11 11:40:19;;;;;;;9.07;5.57;;;;;;;-145.68;36.85;71665.31;10444272;28;20219;-67
2023/07/11 11:45:22;;;;;;;7.97;6.03;;;;;;;-145.68;36.75;71727.25;10457719;28;20581;-67
2023/07/11 11:50:24;;;;;;;10.15;6.47;;;;;;;-145.68;36.06;71597.41;10464413;28;20223;-67
2023/07/11 11:55:33;;;;;;;9.50;6.72;;;;;;;-145.68;35.90;71641.34;10455457;28;20188;-68
2023/07/11 12:00:39;;;;;;;9.43;6.80;;;;;;;-145.68;37.26;71711.28;10443451;28;20239;-67
2023/07/11 12:05:47;;;;;;;8.80;7.32;;;;;;;-145.68;37.36;71683.31;10443552;28;20224;-68
2023/07/11 12:11:18;;;;;;;12.77;8.05;;;;;;;-145.68;36.62;71705.28;10442456;28;20343;-67
2023/07/11 12:16:21;;;;;;;11.68;7.53;;;;;;;-145.68;36.90;71741.25;10451178;28;20220;-68
2023/07/11 12:21:43;;;;;;;12.00;7.70;;;;;;;-145.68;36.78;71657.34;10456498;28;20196;-67
2023/07/11 12:26:44;;;;;;;11.02;6.90;;;;;;;-145.68;36.73;71597.41;10454916;28;20235;-67
2023/07/11 12:31:44;;;;;;;9.23;7.57;;;;;;;-145.68;38.00;71759.22;10454970;28;20204;-67
2023/07/11 12:36:56;;;;;;;9.43;7.50;;;;;;;-145.68;37.70;71795.19;10439486;28;20204;-66
2023/07/11 12:42:34;;;;;;;10.77;7.88;;;;;;;-145.68;36.88;71677.31;10435987;28;20525;-66
2023/07/11 12:47:35;;;;;;;9.43;7.10;;;;;;;-145.68;34.83;71525.47;10435045;28;20220;-67
2023/07/11 12:52:35;;;;;;;11.40;7.30;;;;;;;-145.68;36.01;71613.38;10434927;28;20184;-66
2023/07/11 12:57:43;;;;;;;8.27;7.13;;;;;;;-145.68;34.40;71389.63;10432642;28;20235;-66
2023/07/11 13:02:45;;;;;;;12.07;7.70;;;;;;;-145.68;35.88;71517.47;10428707;28;20185;-65
2023/07/11 13:07:45;;;;;;;10.77;8.05;;;;;;;-145.68;34.76;71465.53;10412040;28;20236;-67
2023/07/11 13:12:46;;;;;;;12.63;8.20;;;;;;;-145.68;35.75;71577.41;10425153;28;20195;-67
2023/07/11 13:17:52;;;;;;;10.82;7.75;;;;;;;-145.68;36.13;71525.47;10452678;28;20478;-66
2023/07/11 13:22:53;;;;;;;12.75;7.43;;;;;;;-145.68;35.86;71567.44;10423532;28;20192;-66
2023/07/11 13:27:53;;;;;;;13.35;7.85;;;;;;;-145.68;35.63;71477.53;10431804;28;20705;-66
2023/07/11 13:32:57;;;;;;;11.52;8.20;;;;;;;-145.68;33.99;71313.72;10436939;28;20196;-67
2023/07/11 13:37:59;;;;;;;14.13;8.50;;;;;;;-145.68;33.67;71283.75;10452204;28;20220;-66
2023/07/11 13:43:00;;;;;;;10.07;7.72;;;;;;;-145.68;34.62;71435.56;10423281;28;20204;-67
2023/07/11 13:48:01;;;;;;;10.02;7.50;;;;;;;-145.68;33.71;71287.75;10418544;28;20311;-67
2023/07/11 13:53:12;;;;;;;10.73;7.85;;;;;;;-145.68;34.02;71347.66;10416984;28;20200;-67
2023/07/11 13:58:12;;;;;;;10.02;7.45;;;;;;;-145.68;33.04;71167.88;10434025;28;20215;-67
2023/07/11 14:03:21;;;;;;;10.53;7.40;;;;;;;-145.68;31.08;70942.16;10413398;28;20542;-67
2023/07/11 14:08:22;;;;;;;9.27;7.70;;;;;;;-145.68;32.28;71195.84;10423100;28;21008;-67
2023/07/11 14:13:25;;;;;;;10.45;8.32;;;;;;;-145.68;31.53;71087.97;10430027;28;20245;-67
2023/07/11 14:18:25;;;;;;;10.25;8.02;;;;;;;-145.68;31.64;70990.09;10418057;28;20652;-67
2023/07/11 14:23:28;;;;;;;12.18;7.72;;;;;;;-145.68;30.46;70874.25;10427317;28;20195;-67
2023/07/11 14:28:29;;;;;;;12.45;8.10;;;;;;;-145.68;31.57;71068.00;10427461;28;20222;-67
2023/07/11 14:33:33;;;;;;;11.45;8.50;;;;;;;-145.68;32.78;71235.81;10422888;28;20201;-67
2023/07/11 14:38:34;;;;;;;9.27;8.07;;;;;;;-145.68;33.53;71221.81;10409023;28;20714;-67
2023/07/11 14:43:34;;;;;;;9.52;8.40;;;;;;;-145.68;32.56;71157.91;10417492;28;20219;-67
2023/07/11 14:48:34;;;;;;;11.17;8.37;;;;;;;-145.68;32.67;71157.91;10424875;28;20220;-67
2023/07/11 14:53:36;;;;;;;11.53;9.50;;;;;;;-145.68;31.92;71087.97;10409671;28;20445;-67
2023/07/11 14:58:38;;;;;;;12.95;9.27;;;;;;;-145.68;32.28;71095.97;10445600;28;20454;-67
2023/07/11 15:03:39;;;;;;;14.60;9.48;;;;;;;-145.68;32.54;71209.84;10450810;28;20188;-67
2023/07/11 15:08:39;;;;;;;18.30;9.30;;;;;;;-145.68;32.14;71131.94;10450332;28;20274;-66
2023/07/11 15:13:39;;;;;;;12.77;9.33;;;;;;;-145.68;32.20;71167.88;10450435;28;20795;-67
2023/07/11 15:18:40;;;;;;;12.75;9.27;;;;;;;-145.68;32.67;71193.84;10450571;28;20805;-67
2023/07/11 15:23:40;;;;;;;19.30;10.07;;;;;;;-145.68;32.76;71219.81;10450620;28;20199;-66
2023/07/11 15:28:41;;;;;;;12.00;9.30;;;;;;;-145.68;32.13;71153.91;10449275;28;20489;-66
2023/07/11 15:33:43;;;;;;;13.40;9.67;;;;;;;-145.68;32.55;71219.81;10450230;28;20446;-66
2023/07/11 15:38:43;;;;;;;12.52;10.00;;;;;;;-145.68;33.06;71245.78;10436386;28;20450;-66
2023/07/11 15:43:44;;;;;;;12.33;9.13;;;;;;;-145.68;32.56;71121.94;10427158;28;20192;-65
2023/07/11 15:48:44;;;;;;;11.43;9.50;;;;;;;-145.68;32.44;71135.91;10418152;28;20564;-65
2023/07/11 15:53:44;;;;;;;12.67;9.87;;;;;;;-145.68;32.95;71181.88;10430883;28;20435;-65
2023/07/11 15:58:45;;;;;;;11.63;10.23;;;;;;;-145.68;32.94;71185.88;10434459;28;20488;-66
2023/07/11 16:03:45;;;;;;;19.23;11.07;;;;;;;-145.68;33.38;71277.75;10435453;28;20434;-66
2023/07/11 16:08:45;;;;;;;13.23;9.73;;;;;;;-145.68;33.70;71239.81;10428293;28;20491;-66
2023/07/11 16:13:46;;;;;;;11.40;9.88;;;;;;;-145.68;33.99;71331.69;10413005;28;20993;-66
2023/07/11 16:18:46;;;;;;;14.43;10.68;;;;;;;-145.68;34.09;71309.72;10416037;28;20303;-66
2023/07/11 16:23:47;;;;;;;13.55;10.68;;;;;;;-145.68;34.73;71369.66;10457109;28;20196;-66
2023/07/11 16:28:47;;;;;;;14.63;10.50;;;;;;;-145.68;35.15;71413.59;10457772;28;20220;-66
2023/07/11 16:33:48;;;;;;;15.85;10.82;;;;;;;-145.68;35.21;71365.66;10457372;28;20504;-66
2023/07/11 16:38:49;;;;;;;15.98;11.60;;;;;;;-145.68;34.69;71371.66;10455632;22;20621;-64
2023/07/11 16:43:49;;;;;;;12.80;10.80;;;;;;;-145.68;34.83;71345.69;10414014;28;20216;-65
2023/07/11 16:48:50;;;;;;;17.30;11.53;;;;;;;-145.68;35.14;71425.59;10415108;28;20243;-64
2023/07/11 16:53:50;;;;;;;14.30;11.27;;;;;;;-145.68;35.28;71417.59;10397621;28;20431;-64
2023/07/11 16:58:51;;;;;;;14.52;11.60;;;;;;;-145.68;35.70;71399.63;10414740;28;20467;-63
2023/07/11 17:03:51;;;;;;;16.20;9.60;;;;;;;-145.68;36.34;71465.53;10414750;28;20213;-64
2023/07/11 17:08:52;;;;;;;11.98;9.77;;;;;;;-145.68;36.75;71481.53;10415328;28;20228;-64
2023/07/11 17:13:53;;;;;;;13.63;10.33;;;;;;;-145.68;36.95;71511.50;10397131;28;20235;-65
2023/07/11 17:18:55;;;;;;;13.77;9.13;;;;;;;-145.68;37.08;71479.53;10414882;28;20467;-65
2023/07/11 17:23:55;;;;;;;12.85;9.55;;;;;;;-145.68;37.50;71529.47;10413825;28;20193;-64
2023/07/11 17:28:56;;;;;;;15.90;9.63;;;;;;;-145.68;37.51;71515.47;10412513;28;20719;-64
2023/07/11 17:33:56;;;;;;;11.90;9.43;;;;;;;-145.68;37.47;71537.47;10412321;28;20197;-66
2023/07/11 17:38:58;;;;;;;15.20;9.60;;;;;;;-145.68;37.59;71533.47;10410922;28;20479;-65
2023/07/11 17:43:58;;;;;;;13.10;9.88;;;;;;;-145.68;38.32;71567.44;10411164;28;20811;-65
2023/07/11 17:48:58;;;;;;;12.52;10.50;;;;;;;-145.68;38.51;71561.44;10411791;28;20209;-65
2023/07/11 17:53:59;;;;;;;10.23;9.13;;;;;;;-145.68;38.86;71553.44;10411727;28;20185;-64
2023/07/11 17:58:59;;;;;;;14.30;10.07;;;;;;;-145.68;39.03;71583.41;10410996;28;20512;-63
2023/07/11 18:04:00;;;;;;;12.50;8.90;;;;;;;-145.68;39.48;71583.41;10411144;28;20439;-65
2023/07/11 18:09:00;;;;;;;16.05;10.00;;;;;;;-145.68;39.43;71615.38;10410914;28;20713;-64
2023/07/11 18:14:00;;;;;;;13.07;9.02;;;;;;;-145.68;39.58;71645.34;10410494;28;20192;-65
2023/07/11 18:19:01;;;;;;;11.98;9.65;;;;;;;-145.68;40.28;71669.31;10410014;28;20210;-64
2023/07/11 18:24:01;;;;;;;14.82;9.50;;;;;;;-145.68;40.71;71669.31;10410441;28;20196;-65
2023/07/11 18:29:01;;;;;;;12.32;8.90;;;;;;;-145.68;40.66;71683.31;10410541;28;20220;-65
2023/07/11 18:34:02;;;;;;;12.88;8.85;;;;;;;-145.68;41.08;71721.25;10410314;28;20200;-65
2023/07/11 18:39:03;;;;;;;9.75;8.63;;;;;;;-145.68;41.62;71753.22;10411131;28;20239;-65
2023/07/11 18:44:04;;;;;;;11.82;9.07;;;;;;;-145.68;41.79;71763.22;10410833;28;20739;-64
2023/07/11 18:49:04;;;;;;;20.05;10.00;;;;;;;-145.68;42.30;71795.19;10410856;28;20212;-65
2023/07/11 18:54:04;;;;;;;12.48;9.82;;;;;;;-145.68;42.48;71793.19;10410517;28;20655;-64
2023/07/11 18:59:05;;;;;;;10.18;8.80;;;;;;;-145.68;42.91;71807.19;10392848;28;20713;-65
2023/07/11 19:04:05;;;;;;;17.02;10.02;;;;;;;-145.68;43.53;71845.13;10410419;28;20227;-65
2023/07/11 19:09:10;;;;;;;12.93;10.13;;;;;;;-145.68;43.95;71873.09;10410091;28;20201;-64
2023/07/11 19:14:10;;;;;;;12.50;9.93;;;;;;;-145.68;44.63;71901.09;10410197;28;20201;-65
2023/07/11 19:19:31;;;;;;;15.80;9.68;;;;;;;-145.68;44.36;71899.09;10410120;28;20207;-63
2023/07/11 19:24:31;;;;;;;13.80;10.40;;;;;;;-145.68;44.68;71913.06;10409875;28;20220;-64
2023/07/11 19:29:32;;;;;;;14.48;9.60;;;;;;;-145.68;45.10;71929.06;10413462;28;20296;-66
2023/07/11 19:34:32;;;;;;;13.85;10.00;;;;;;;-145.68;45.12;71923.06;10418418;28;20192;-64
2023/07/11 19:39:33;;;;;;;14.30;9.65;;;;;;;-145.68;45.13;71925.06;10417230;28;20234;-64
2023/07/11 19:44:33;;;;;;;12.50;10.23;;;;;;;-145.68;45.21;71937.03;10416958;28;20224;-62
2023/07/11 19:49:33;;;;;;;15.40;10.07;;;;;;;-145.68;44.91;71917.06;10417168;28;20226;-65
2023/07/11 19:54:34;;;;;;;13.13;9.85;;;;;;;-145.68;44.95;71915.06;10416971;28;20196;-64
2023/07/11 19:59:34;;;;;;;11.75;9.38;;;;;;;-145.68;44.98;71907.06;10419250;28;20212;-63
2023/07/11 20:04:34;;;;;;;14.20;9.45;;;;;;;-145.68;44.82;71899.09;10416961;28;20200;-63
2023/07/11 20:09:35;;;;;;;14.27;9.50;;;;;;;-145.68;44.41;71889.09;10417223;28;20364;-62
2023/07/11 20:14:35;;;;;;;12.27;8.30;;;;;;;-145.68;44.32;71887.09;10417288;28;20188;-62
2023/07/11 20:19:35;;;;;;;13.90;9.27;;;;;;;-145.68;43.84;71857.13;10416853;28;20218;-62
2023/07/11 20:24:44;;;;;;;12.50;9.50;;;;;;;-145.68;44.02;71849.13;10416437;28;20201;-62
2023/07/11 20:29:44;;;;;;;12.02;8.77;;;;;;;-145.68;43.99;71833.16;10414236;28;20207;-63
2023/07/11 20:34:45;;;;;;;15.05;8.48;;;;;;;-145.68;44.02;71837.16;10436355;28;20278;-62
2023/07/11 20:39:45;;;;;;;11.40;8.80;;;;;;;-145.68;43.90;71835.16;10456381;28;20238;-64
2023/07/11 20:44:46;;;;;;;14.95;9.23;;;;;;;-145.68;44.02;71857.13;10457238;28;20215;-63
2023/07/11 20:49:46;;;;;;;12.90;8.43;;;;;;;-145.68;43.44;71851.13;10456986;28;20212;-62
2023/07/11 20:54:46;;;;;;;12.95;8.30;;;;;;;-145.68;43.56;71873.09;10457104;28;20195;-64
2023/07/11 20:59:47;;;;;;;13.95;8.82;;;;;;;-145.68;43.97;71897.09;10456951;28;20220;-63
2023/07/11 21:04:47;;;;;;;12.57;8.82;;;;;;;-145.68;44.47;71891.09;10455675;28;20215;-63
2023/07/11 21:09:47;;;;;;;13.38;9.07;;;;;;;-145.68;44.72;71919.06;10456392;28;20220;-63
2023/07/11 21:14:48;;;;;;;11.82;8.50;;;;;;;-145.68;44.98;71925.06;10456264;28;20330;-63
2023/07/11 21:19:48;;;;;;;13.65;8.50;;;;;;;-145.68;44.55;71903.06;10456107;28;20220;-63
2023/07/11 21:24:48;;;;;;;14.35;8.27;;;;;;;-145.68;44.22;71885.09;10455657;28;20227;-61
2023/07/11 21:29:49;;;;;;;12.15;8.93;;;;;;;-145.68;44.35;71909.06;10455564;28;20216;-65
2023/07/11 21:34:49;;;;;;;11.23;8.60;;;;;;;-145.68;44.55;71905.06;10455539;28;20198;-64
2023/07/11 21:39:49;;;;;;;11.23;8.25;;;;;;;-145.68;44.23;71913.06;10454941;28;20261;-64
2023/07/11 21:44:53;;;;;;;10.85;8.25;;;;;;;-145.68;44.62;71917.06;10454980;28;20230;-63
2023/07/11 21:49:54;;;;;;;12.25;8.27;;;;;;;-145.68;44.76;71937.03;10453838;28;20281;-63
2023/07/11 21:54:54;;;;;;;12.55;8.10;;;;;;;-145.68;44.59;71933.03;10454991;28;20765;-64
2023/07/11 21:59:54;;;;;;;12.73;8.85;;;;;;;-145.68;44.35;71931.06;10454229;28;20585;-63
2023/07/11 22:04:55;;;;;;;13.70;9.05;;;;;;;-145.68;44.05;71917.06;10453954;28;20628;-63
2023/07/11 22:09:55;;;;;;;12.70;8.45;;;;;;;-145.68;43.87;71913.06;10453795;28;20584;-63
2023/07/11 22:14:55;;;;;;;14.07;7.88;;;;;;;-145.68;43.73;71889.09;10453970;28;20192;-64
2023/07/11 22:19:57;;;;;;;14.73;9.05;;;;;;;-145.68;43.49;71873.09;10453675;28;20219;-65
2023/07/11 22:24:57;;;;;;;10.75;8.48;;;;;;;-145.68;43.12;71861.13;10453397;28;20231;-63
2023/07/11 22:29:57;;;;;;;14.75;8.10;;;;;;;-145.68;43.07;71859.13;10453529;28;20294;-63
2023/07/11 22:34:58;;;;;;;12.32;9.25;;;;;;;-145.68;43.03;71853.13;10453096;28;20196;-64
2023/07/11 22:39:58;;;;;;;13.60;9.07;;;;;;;-145.68;43.09;71859.13;10443976;22;20309;-67